createdAt,value
2017-11-19T00:00:08.593Z,42.1
2017-11-19T00:01:10.195Z,42.2
2017-11-19T00:02:12.091Z,42.1
2017-11-19T00:03:13.436Z,42.1
2017-11-19T00:04:15.053Z,42.6
2017-11-19T00:05:16.677Z,42.1
2017-11-19T00:06:18.280Z,42.5
2017-11-19T00:07:20.184Z,42.4
2017-11-19T00:08:22.079Z,42.3
2017-11-19T00:09:24.005Z,42.5
2017-11-19T00:10:25.903Z,42.4
2017-11-19T00:11:27.510Z,42.3
2017-11-19T00:12:29.129Z,42.1
2017-11-19T00:13:30.470Z,42.3
2017-11-19T00:14:32.095Z,42.5
2017-11-19T00:15:33.710Z,42.4
2017-11-19T00:16:35.031Z,42.3
2017-11-19T00:17:36.360Z,42.4
2017-11-19T00:18:37.974Z,42.4
2017-11-19T00:19:39.595Z,42.4
2017-11-19T00:20:41.220Z,42.4
2017-11-19T00:21:43.121Z,42.3
2017-11-19T00:22:45.025Z,42.3
2017-11-19T00:23:46.921Z,42.3
2017-11-19T00:24:48.816Z,42.3
2017-11-19T00:25:50.433Z,42.3
2017-11-19T00:26:52.034Z,42.3
2017-11-19T00:27:53.937Z,42.5
2017-11-19T00:28:55.558Z,42.3
2017-11-19T00:29:57.178Z,42.6
2017-11-19T00:30:58.523Z,42.2
2017-11-19T00:32:00.119Z,42.2
2017-11-19T00:33:02.026Z,42.2
2017-11-19T00:34:03.349Z,42.5
2017-11-19T00:35:04.966Z,42.6
2017-11-19T00:36:06.613Z,42.5
2017-11-19T00:37:08.235Z,42.5
2017-11-19T00:38:09.588Z,42.7
2017-11-19T00:39:11.478Z,42.5
2017-11-19T00:40:13.100Z,42.6
2017-11-19T00:41:14.998Z,42.6
2017-11-19T00:42:16.611Z,42.7
2017-11-19T00:43:18.232Z,42.7
2017-11-19T00:44:19.555Z,42.7
2017-11-19T00:45:21.175Z,42.7
2017-11-19T00:46:22.815Z,42.6
2017-11-19T00:47:24.441Z,42.6
2017-11-19T00:48:26.043Z,42.6
2017-11-19T00:49:27.388Z,42.6
2017-11-19T00:50:28.712Z,42.6
2017-11-19T00:51:30.608Z,42.9
2017-11-19T00:52:32.236Z,42.8
2017-11-19T00:53:34.141Z,42.8
2017-11-19T00:54:36.045Z,42.7
2017-11-19T00:55:37.681Z,42.7
2017-11-19T00:56:39.031Z,42.7
2017-11-19T00:57:40.659Z,42.6
2017-11-19T00:58:41.982Z,42.6
2017-11-19T00:59:43.622Z,42.6
2017-11-19T01:00:45.242Z,42.9
2017-11-19T01:01:46.878Z,42.7
2017-11-19T01:02:48.494Z,42.6
2017-11-19T01:03:49.838Z,43
2017-11-19T01:04:51.736Z,42.7
2017-11-19T01:05:53.360Z,42.9
2017-11-19T01:06:54.981Z,42.6
2017-11-19T01:07:56.613Z,42.6
2017-11-19T01:08:58.510Z,42.6
2017-11-19T01:10:00.409Z,42.7
2017-11-19T01:11:02.311Z,42.7
2017-11-19T01:12:04.212Z,42.7
2017-11-19T01:13:05.554Z,42.8
2017-11-19T01:14:07.173Z,42.6
2017-11-19T01:15:09.078Z,42.7
2017-11-19T01:16:10.671Z,42.9
2017-11-19T01:17:12.568Z,42.7
2017-11-19T01:18:14.193Z,42.7
2017-11-19T01:19:15.812Z,42.7
2017-11-19T01:20:17.715Z,42.6
2017-11-19T01:21:19.056Z,42.7
2017-11-19T01:22:29.291Z,42.7
2017-11-19T01:23:30.908Z,42.6
2017-11-19T01:24:32.534Z,42.6
2017-11-19T01:25:33.863Z,42.5
2017-11-19T01:26:35.485Z,42.7
2017-11-19T01:27:37.397Z,42.8
2017-11-19T01:28:39.285Z,43
2017-11-19T01:29:40.903Z,42.5
2017-11-19T01:30:42.226Z,42.6
2017-11-19T01:31:44.123Z,42.8
2017-11-19T01:32:46.033Z,42.7
2017-11-19T01:33:47.628Z,42.6
2017-11-19T01:34:49.247Z,42.7
2017-11-19T01:35:51.142Z,42.7
2017-11-19T01:36:52.741Z,42.5
2017-11-19T01:37:54.340Z,42.6
2017-11-19T01:38:55.957Z,42.7
2017-11-19T01:39:57.572Z,42.6
2017-11-19T01:40:59.472Z,42.5
2017-11-19T01:42:01.069Z,42.7
2017-11-19T01:43:02.741Z,42.6
2017-11-19T01:44:04.370Z,42.5
2017-11-19T01:45:05.710Z,42.7
2017-11-19T01:46:07.601Z,42.7
2017-11-19T01:47:09.495Z,42.7
2017-11-19T01:48:11.125Z,42.9
2017-11-19T01:49:12.448Z,43
2017-11-19T01:50:14.062Z,42.7
2017-11-19T01:51:15.383Z,42.5
2017-11-19T01:52:17.277Z,42.6
2017-11-19T01:53:19.171Z,42.7
2017-11-19T01:54:21.069Z,42.9
2017-11-19T01:55:22.966Z,42.8
2017-11-19T01:56:24.582Z,42.7
2017-11-19T01:57:25.628Z,42.8
2017-11-19T01:58:27.245Z,42.8
2017-11-19T01:59:29.141Z,42.6
2017-11-19T02:00:30.487Z,42.7
2017-11-19T02:01:32.103Z,42.9
2017-11-19T02:02:34.074Z,42.9
2017-11-19T02:03:35.969Z,42.8
2017-11-19T02:04:37.599Z,43
2017-11-19T02:05:39.218Z,42.8
2017-11-19T02:06:40.557Z,42.9
2017-11-19T02:07:42.188Z,42.9
2017-11-19T02:08:44.076Z,42.5
2017-11-19T02:09:45.698Z,42.7
2017-11-19T02:10:47.594Z,42.7
2017-11-19T02:11:49.212Z,42.7
2017-11-19T02:12:50.811Z,42.8
2017-11-19T02:13:52.429Z,42.8
2017-11-19T02:14:53.507Z,42.8
2017-11-19T02:15:54.849Z,43
2017-11-19T02:16:56.750Z,42.7
2017-11-19T02:17:58.339Z,42.7
2017-11-19T02:18:59.963Z,42.6
2017-11-19T02:20:01.584Z,42.7
2017-11-19T02:21:03.479Z,42.9
2017-11-19T02:22:05.384Z,43
2017-11-19T02:23:07.271Z,43.1
2017-11-19T02:24:08.614Z,43.1
2017-11-19T02:25:10.241Z,42.9
2017-11-19T02:26:11.837Z,43.1
2017-11-19T02:27:12.883Z,43
2017-11-19T02:28:14.477Z,42.9
2017-11-19T02:29:16.079Z,43
2017-11-19T02:30:17.718Z,42.9
2017-11-19T02:31:19.613Z,43.1
2017-11-19T02:32:21.508Z,42.8
2017-11-19T02:33:22.836Z,42.8
2017-11-19T02:34:24.729Z,42.9
2017-11-19T02:35:26.346Z,43
2017-11-19T02:36:27.962Z,42.9
2017-11-19T02:37:29.858Z,42.9
2017-11-19T02:38:31.524Z,42.8
2017-11-19T02:39:33.442Z,43
2017-11-19T02:40:35.339Z,42.6
2017-11-19T02:41:36.963Z,43
2017-11-19T02:42:38.861Z,42.9
2017-11-19T02:43:40.777Z,42.9
2017-11-19T02:44:42.680Z,43.1
2017-11-19T02:45:43.993Z,43
2017-11-19T02:46:45.623Z,42.8
2017-11-19T02:47:47.246Z,43
2017-11-19T02:48:49.142Z,43.1
2017-11-19T02:49:50.490Z,42.8
2017-11-19T02:50:52.386Z,43.1
2017-11-19T02:51:54.004Z,43
2017-11-19T02:52:55.323Z,43.3
2017-11-19T02:53:56.980Z,42.9
2017-11-19T02:54:58.598Z,43.2
2017-11-19T02:55:59.925Z,43.2
2017-11-19T02:57:01.546Z,43.1
2017-11-19T02:58:02.874Z,43.1
2017-11-19T02:59:04.497Z,43.2
2017-11-19T03:00:06.112Z,43.1
2017-11-19T03:01:07.712Z,43.1
2017-11-19T03:02:09.330Z,42.9
2017-11-19T03:03:11.227Z,43.2
2017-11-19T03:04:13.128Z,43.2
2017-11-19T03:05:14.464Z,43.2
2017-11-19T03:06:16.108Z,43.2
2017-11-19T03:07:17.725Z,43.2
2017-11-19T03:08:19.351Z,43.2
2017-11-19T03:09:20.967Z,43.2
2017-11-19T03:10:22.863Z,43.1
2017-11-19T03:11:24.203Z,43.3
2017-11-19T03:12:26.097Z,43.2
2017-11-19T03:13:27.695Z,43.2
2017-11-19T03:14:29.034Z,43.1
2017-11-19T03:15:30.655Z,43.3
2017-11-19T03:16:31.994Z,43.2
2017-11-19T03:17:33.636Z,43.3
2017-11-19T03:18:35.530Z,43.1
2017-11-19T03:19:37.164Z,43.2
2017-11-19T03:20:38.516Z,43.4
2017-11-19T03:21:40.461Z,43.4
2017-11-19T03:22:41.804Z,43.1
2017-11-19T03:23:43.748Z,43.2
2017-11-19T03:24:45.070Z,43.3
2017-11-19T03:25:46.983Z,43
2017-11-19T03:26:48.306Z,43.2
2017-11-19T03:27:49.923Z,43.1
2017-11-19T03:28:50.974Z,43.4
2017-11-19T03:29:52.587Z,43.2
2017-11-19T03:30:54.486Z,43.4
2017-11-19T03:31:56.381Z,43.4
2017-11-19T03:32:58.280Z,43.4
2017-11-19T03:33:59.874Z,43
2017-11-19T03:35:01.220Z,43.3
2017-11-19T03:36:02.846Z,43.3
2017-11-19T03:37:04.439Z,43.3
2017-11-19T03:38:05.764Z,43.3
2017-11-19T03:39:07.661Z,43.3
2017-11-19T03:40:09.005Z,43.4
2017-11-19T03:41:10.901Z,43.2
2017-11-19T03:42:12.517Z,43
2017-11-19T03:43:14.113Z,43.4
2017-11-19T03:44:16.009Z,43.3
2017-11-19T03:45:17.353Z,43.3
2017-11-19T03:46:19.260Z,43.1
2017-11-19T03:47:20.860Z,43.3
2017-11-19T03:48:22.198Z,43.1
2017-11-19T03:49:23.819Z,43.3
2017-11-19T03:50:25.441Z,43.3
2017-11-19T03:51:27.337Z,43.2
2017-11-19T03:52:29.233Z,43.2
2017-11-19T03:53:30.847Z,43.2
2017-11-19T03:54:32.467Z,43.2
2017-11-19T03:55:34.085Z,43.3
2017-11-19T03:56:35.703Z,43.3
2017-11-19T03:57:37.322Z,43.3
2017-11-19T03:58:39.214Z,43.4
2017-11-19T03:59:40.835Z,43.3
2017-11-19T04:00:42.726Z,43.3
2017-11-19T04:01:44.330Z,43
2017-11-19T04:02:45.663Z,43.3
2017-11-19T04:03:47.559Z,43.2
2017-11-19T04:04:48.881Z,43.3
2017-11-19T04:05:50.221Z,43.1
2017-11-19T04:06:51.286Z,43.3
2017-11-19T04:07:52.604Z,43
2017-11-19T04:08:54.496Z,43.2
2017-11-19T04:09:56.392Z,43.1
2017-11-19T04:10:57.739Z,43.4
2017-11-19T04:11:59.357Z,43.4
2017-11-19T04:13:00.977Z,43.3
2017-11-19T04:14:02.298Z,43.2
2017-11-19T04:15:03.897Z,43.2
2017-11-19T04:16:05.516Z,43.3
2017-11-19T04:17:07.146Z,43.1
2017-11-19T04:18:08.739Z,43.3
2017-11-19T04:19:10.058Z,43.2
2017-11-19T04:20:11.954Z,43.1
2017-11-19T04:21:13.551Z,43.1
2017-11-19T04:22:15.169Z,43.3
2017-11-19T04:23:16.513Z,43
2017-11-19T04:24:18.153Z,43.3
2017-11-19T04:25:19.772Z,43.4
2017-11-19T04:26:21.367Z,43.2
2017-11-19T04:27:23.026Z,43.2
2017-11-19T04:28:24.924Z,43.4
2017-11-19T04:29:26.521Z,43.4
2017-11-19T04:30:28.419Z,43.3
2017-11-19T04:31:30.314Z,43.3
2017-11-19T04:32:32.213Z,43.3
2017-11-19T04:33:34.109Z,42.9
2017-11-19T04:34:36.008Z,43.2
2017-11-19T04:35:37.623Z,43.3
2017-11-19T04:36:39.241Z,43.3
2017-11-19T04:37:40.304Z,43.3
2017-11-19T04:38:41.902Z,42.9
2017-11-19T04:39:42.943Z,43.3
2017-11-19T04:40:44.845Z,43.2
2017-11-19T04:41:46.733Z,43
2017-11-19T04:42:48.050Z,43.3
2017-11-19T04:43:49.391Z,43.2
2017-11-19T04:44:50.990Z,43.2
2017-11-19T04:45:52.605Z,43.1
2017-11-19T04:46:53.949Z,43
2017-11-19T04:47:55.841Z,43.3
2017-11-19T04:48:57.182Z,43.3
2017-11-19T04:49:58.227Z,43.1
2017-11-19T04:51:00.121Z,43.3
2017-11-19T04:52:01.163Z,43.2
2017-11-19T04:53:03.068Z,43.3
2017-11-19T04:54:04.956Z,43
2017-11-19T04:55:06.275Z,43.2
2017-11-19T04:56:07.894Z,43
2017-11-19T04:57:09.790Z,43
2017-11-19T04:58:11.687Z,43
2017-11-19T04:59:13.579Z,43.1
2017-11-19T05:00:15.200Z,43.3
2017-11-19T05:01:17.097Z,43
2017-11-19T05:02:18.994Z,43
2017-11-19T05:03:20.611Z,43.1
2017-11-19T05:04:22.505Z,43.1
2017-11-19T05:05:24.126Z,43.2
2017-11-19T05:06:26.021Z,43.2
2017-11-19T05:07:27.640Z,43
2017-11-19T05:08:29.536Z,43.3
2017-11-19T05:09:31.431Z,43
2017-11-19T05:10:33.049Z,43.2
2017-11-19T05:11:34.390Z,43.3
2017-11-19T05:12:35.433Z,43.1
2017-11-19T05:13:37.052Z,43.1
2017-11-19T05:14:38.393Z,43.4
2017-11-19T05:15:39.713Z,43
2017-11-19T05:16:41.333Z,43.3
2017-11-19T05:17:42.676Z,43.1
2017-11-19T05:18:44.338Z,43
2017-11-19T05:19:45.958Z,43.3
2017-11-19T05:20:47.576Z,43.3
2017-11-19T05:21:49.469Z,43.4
2017-11-19T05:22:51.087Z,42.9
2017-11-19T05:23:52.709Z,43.3
2017-11-19T05:24:54.331Z,43.4
2017-11-19T05:25:55.978Z,43.3
2017-11-19T05:26:57.297Z,43.3
2017-11-19T05:27:59.193Z,43.3
2017-11-19T05:29:01.091Z,43.1
2017-11-19T05:30:02.987Z,43.3
2017-11-19T05:31:04.327Z,43.3
2017-11-19T05:32:05.384Z,43.4
2017-11-19T05:33:07.019Z,43.4
2017-11-19T05:34:08.361Z,43.3
2017-11-19T05:35:10.256Z,43.2
2017-11-19T05:36:11.873Z,43.2
2017-11-19T05:37:13.198Z,43.3
2017-11-19T05:38:15.094Z,43.3
2017-11-19T05:39:16.715Z,43.3
2017-11-19T05:40:18.632Z,43.3
2017-11-19T05:41:20.523Z,43.1
2017-11-19T05:42:22.141Z,43
2017-11-19T05:43:24.040Z,42.9
2017-11-19T05:44:25.935Z,43.4
2017-11-19T05:45:27.553Z,43.3
2017-11-19T05:46:29.456Z,43.4
2017-11-19T05:47:31.072Z,43.3
2017-11-19T05:48:32.688Z,43.2
2017-11-19T05:49:34.012Z,43.3
2017-11-19T05:50:35.613Z,43.3
2017-11-19T05:51:36.955Z,43
2017-11-19T05:52:38.552Z,43.2
2017-11-19T05:53:40.209Z,43.2
2017-11-19T05:54:42.107Z,43
2017-11-19T05:55:44.003Z,43.2
2017-11-19T05:56:45.901Z,43.1
2017-11-19T05:57:47.815Z,43.1
2017-11-19T05:58:49.432Z,43.2
2017-11-19T05:59:51.054Z,43.1
2017-11-19T06:00:52.676Z,43.3
2017-11-19T06:01:53.998Z,43.1
2017-11-19T06:02:55.894Z,43.3
2017-11-19T06:03:57.523Z,43.1
2017-11-19T06:04:58.857Z,43.2
2017-11-19T06:06:00.751Z,43.1
2017-11-19T06:07:02.093Z,43
2017-11-19T06:08:03.986Z,43.2
2017-11-19T06:09:05.584Z,43.4
2017-11-19T06:10:07.201Z,43.4
2017-11-19T06:11:08.822Z,43.2
2017-11-19T06:12:10.745Z,43.1
2017-11-19T06:13:12.362Z,43.2
2017-11-19T06:14:14.286Z,43.2
2017-11-19T06:15:15.608Z,43.2
2017-11-19T06:16:17.503Z,43.2
2017-11-19T06:17:19.402Z,43.2
2017-11-19T06:18:20.743Z,43.3
2017-11-19T06:19:22.342Z,43
2017-11-19T06:20:24.244Z,42.9
2017-11-19T06:21:25.841Z,43.2
2017-11-19T06:22:27.171Z,43.3
2017-11-19T06:23:28.501Z,43.3
2017-11-19T06:24:30.399Z,43.3
2017-11-19T06:25:32.297Z,43.4
2017-11-19T06:26:34.193Z,43
2017-11-19T06:27:35.812Z,43.2
2017-11-19T06:28:37.158Z,43.3
2017-11-19T06:29:38.776Z,43.2
2017-11-19T06:30:40.379Z,42.9
2017-11-19T06:31:42.280Z,43.4
2017-11-19T06:32:43.877Z,43
2017-11-19T06:33:45.500Z,43.3
2017-11-19T06:34:47.398Z,43.3
2017-11-19T06:35:49.018Z,43.3
2017-11-19T06:36:50.635Z,43.1
2017-11-19T06:37:52.535Z,43.1
2017-11-19T06:38:53.857Z,43.2
2017-11-19T06:39:55.454Z,43.2
2017-11-19T06:40:57.079Z,43.4
2017-11-19T06:41:58.692Z,43.3
2017-11-19T06:43:00.011Z,43.2
2017-11-19T06:44:01.636Z,43.1
2017-11-19T06:45:02.975Z,43.3
2017-11-19T06:46:04.316Z,43.4
2017-11-19T06:47:05.914Z,43
2017-11-19T06:48:07.814Z,43.4
2017-11-19T06:49:09.717Z,43.1
2017-11-19T06:50:11.335Z,43.4
2017-11-19T06:51:13.235Z,43.2
2017-11-19T06:52:15.145Z,43.3
2017-11-19T06:53:16.739Z,43.3
2017-11-19T06:54:18.081Z,43
2017-11-19T06:55:19.132Z,43.2
2017-11-19T06:56:20.754Z,43.1
2017-11-19T06:57:22.353Z,43.4
2017-11-19T06:58:23.977Z,43.4
2017-11-19T06:59:25.320Z,43.1
2017-11-19T07:00:26.656Z,43
2017-11-19T07:01:27.977Z,43.1
2017-11-19T07:02:29.577Z,43.4
2017-11-19T07:03:30.901Z,43.2
2017-11-19T07:04:32.524Z,42.9
2017-11-19T07:05:34.416Z,43.2
2017-11-19T07:06:36.023Z,42.9
2017-11-19T07:07:37.643Z,43.2
2017-11-19T07:08:39.272Z,43.2
2017-11-19T07:09:41.170Z,43.1
2017-11-19T07:10:42.794Z,43.2
2017-11-19T07:11:44.413Z,43
2017-11-19T07:12:45.905Z,43.2
2017-11-19T07:13:47.804Z,43.3
2017-11-19T07:14:49.454Z,43.4
2017-11-19T07:15:51.070Z,43.3
2017-11-19T07:16:53.037Z,43.2
2017-11-19T07:17:54.082Z,43.2
2017-11-19T07:18:55.680Z,43.1
2017-11-19T07:19:57.300Z,43.2
2017-11-19T07:20:58.928Z,43.2
2017-11-19T07:22:00.554Z,43.2
2017-11-19T07:23:01.996Z,43.2
2017-11-19T07:24:03.896Z,43.2
2017-11-19T07:25:05.795Z,43.1
2017-11-19T07:26:07.394Z,43.3
2017-11-19T07:27:09.019Z,43.3
2017-11-19T07:28:10.616Z,43.2
2017-11-19T07:29:12.246Z,42.7
2017-11-19T07:30:13.858Z,43
2017-11-19T07:31:15.457Z,43.2
2017-11-19T07:32:17.356Z,43.1
2017-11-19T07:33:18.693Z,43.1
2017-11-19T07:34:20.048Z,43.2
2017-11-19T07:35:21.663Z,42.8
2017-11-19T07:36:23.281Z,43.2
2017-11-19T07:37:25.183Z,43.2
2017-11-19T07:38:26.801Z,43.1
2017-11-19T07:39:28.130Z,42.8
2017-11-19T07:40:30.026Z,42.7
2017-11-19T07:41:31.371Z,43
2017-11-19T07:42:32.987Z,43
2017-11-19T07:43:34.604Z,43.1
2017-11-19T07:44:36.228Z,42.9
2017-11-19T07:45:38.122Z,43
2017-11-19T07:46:40.023Z,43
2017-11-19T07:47:41.641Z,43
2017-11-19T07:48:42.998Z,42.8
2017-11-19T07:49:44.344Z,42.8
2017-11-19T07:50:46.263Z,43.1
2017-11-19T07:51:47.883Z,43.2
2017-11-19T07:52:49.777Z,43
2017-11-19T07:53:51.123Z,42.6
2017-11-19T07:54:52.464Z,42.9
2017-11-19T07:55:54.091Z,43.1
2017-11-19T07:56:55.704Z,43
2017-11-19T07:57:57.343Z,43.1
2017-11-19T07:58:58.964Z,43.1
2017-11-19T08:00:00.854Z,43.1
2017-11-19T08:01:02.473Z,43
2017-11-19T08:02:04.107Z,42.9
2017-11-19T08:03:05.707Z,43
2017-11-19T08:04:07.030Z,42.8
2017-11-19T08:05:08.354Z,43.2
2017-11-19T08:06:09.403Z,42.9
2017-11-19T08:07:11.020Z,42.7
2017-11-19T08:08:12.919Z,43
2017-11-19T08:09:14.867Z,42.7
2017-11-19T08:10:16.487Z,42.7
2017-11-19T08:11:18.108Z,42.9
2017-11-19T08:12:19.474Z,43
2017-11-19T08:13:21.423Z,43
2017-11-19T08:14:23.024Z,42.9
2017-11-19T08:15:24.651Z,42.9
2017-11-19T08:16:26.294Z,42.9
2017-11-19T08:17:27.912Z,43.1
2017-11-19T08:18:29.804Z,42.8
2017-11-19T08:19:31.701Z,42.9
2017-11-19T08:20:33.327Z,42.6
2017-11-19T08:21:34.646Z,42.9
2017-11-19T08:22:36.267Z,42.9
2017-11-19T08:23:37.594Z,42.7
2017-11-19T08:24:39.500Z,42.5
2017-11-19T08:25:40.541Z,42.7
2017-11-19T08:26:41.864Z,42.8
2017-11-19T08:27:43.183Z,42.9
2017-11-19T08:28:45.080Z,42.6
2017-11-19T08:29:46.702Z,42.5
2017-11-19T08:30:48.327Z,42.6
2017-11-19T08:31:49.921Z,42.9
2017-11-19T08:32:51.520Z,43
2017-11-19T08:33:53.141Z,42.6
2017-11-19T08:34:55.034Z,42.7
2017-11-19T08:35:56.931Z,42.7
2017-11-19T08:36:57.997Z,42.9
2017-11-19T08:37:59.894Z,42.9
2017-11-19T08:39:01.795Z,42.9
2017-11-19T08:40:03.704Z,42.7
2017-11-19T08:41:05.314Z,42.7
2017-11-19T08:42:07.208Z,42.8
2017-11-19T08:43:09.106Z,42.7
2017-11-19T08:44:10.448Z,42.8
2017-11-19T08:45:12.118Z,42.9
2017-11-19T08:46:14.014Z,42.9
2017-11-19T08:47:15.353Z,42.8
2017-11-19T08:48:16.424Z,42.4
2017-11-19T08:49:18.319Z,42.8
2017-11-19T08:50:19.670Z,42.8
2017-11-19T08:51:21.561Z,43
2017-11-19T08:52:23.181Z,42.8
2017-11-19T08:53:25.075Z,42.7
2017-11-19T08:54:26.972Z,42.8
2017-11-19T08:55:28.292Z,43
2017-11-19T08:56:29.612Z,42.6
2017-11-19T08:57:31.508Z,42.6
2017-11-19T08:58:33.415Z,42.8
2017-11-19T08:59:34.757Z,42.7
2017-11-19T09:00:36.411Z,42.6
2017-11-19T09:01:38.052Z,42.7
2017-11-19T09:02:39.667Z,42.7
2017-11-19T09:03:41.264Z,42.7
2017-11-19T09:04:42.885Z,42.6
2017-11-19T09:05:44.510Z,42.7
2017-11-19T09:06:46.405Z,42.7
2017-11-19T09:07:48.025Z,42.8
2017-11-19T09:08:49.645Z,42.9
2017-11-19T09:09:51.542Z,42.8
2017-11-19T09:10:52.583Z,42.7
2017-11-19T09:11:53.910Z,42.9
2017-11-19T09:12:55.536Z,42.8
2017-11-19T09:13:57.438Z,42.7
2017-11-19T09:14:58.755Z,42.6
2017-11-19T09:16:00.401Z,42.7
2017-11-19T09:17:02.289Z,42.7
2017-11-19T09:18:03.918Z,42.7
2017-11-19T09:19:05.538Z,42.5
2017-11-19T09:20:07.170Z,42.7
2017-11-19T09:21:08.787Z,42.6
2017-11-19T09:22:10.686Z,42.7
2017-11-19T09:23:12.287Z,42.6
2017-11-19T09:24:13.608Z,42.6
2017-11-19T09:25:14.961Z,42.6
2017-11-19T09:26:16.854Z,42.6
2017-11-19T09:27:18.760Z,42.7
2017-11-19T09:28:20.386Z,42.7
2017-11-19T09:29:22.284Z,42.7
2017-11-19T09:30:24.182Z,42.3
2017-11-19T09:31:25.504Z,42.2
2017-11-19T09:32:26.824Z,42.1
2017-11-19T09:33:28.721Z,42.5
2017-11-19T09:34:30.620Z,42.2
2017-11-19T09:35:31.937Z,42.4
2017-11-19T09:36:33.553Z,42.2
2017-11-19T09:37:35.448Z,42.2
2017-11-19T09:38:36.219Z,42.2
2017-11-19T09:39:37.847Z,42.7
2017-11-19T09:40:39.739Z,42.5
2017-11-19T09:41:41.359Z,42.2
2017-11-19T09:42:42.979Z,42.1
2017-11-19T09:43:44.885Z,42.2
2017-11-19T09:44:46.785Z,42.2
2017-11-19T09:45:48.406Z,42.4
2017-11-19T09:46:50.304Z,42.2
2017-11-19T09:47:51.648Z,42.2
2017-11-19T09:48:53.545Z,42.6
2017-11-19T09:49:54.592Z,42.5
2017-11-19T09:50:56.493Z,42.4
2017-11-19T09:51:58.162Z,42.2
2017-11-19T09:52:59.778Z,42.2
2017-11-19T09:54:01.383Z,42.5
2017-11-19T09:55:02.981Z,42.4
2017-11-19T09:56:04.300Z,42.5
2017-11-19T09:57:05.921Z,42.3
2017-11-19T09:58:07.541Z,42.3
2017-11-19T09:59:08.859Z,42.2
2017-11-19T10:00:10.759Z,42.3
2017-11-19T10:01:12.652Z,42.2
2017-11-19T10:02:14.255Z,42.3
2017-11-19T10:03:16.156Z,42.3
2017-11-19T10:04:17.779Z,42.1
2017-11-19T10:05:19.678Z,42.4
2017-11-19T10:06:21.281Z,42.2
2017-11-19T10:07:22.882Z,42.5
2017-11-19T10:08:24.198Z,42.1
2017-11-19T10:09:25.823Z,42.5
2017-11-19T10:10:27.753Z,42.4
2017-11-19T10:11:29.406Z,42.4
2017-11-19T10:12:30.724Z,42.3
2017-11-19T10:13:32.348Z,42.3
2017-11-19T10:14:33.972Z,42.6
2017-11-19T10:15:35.593Z,42.3
2017-11-19T10:16:36.932Z,42.3
2017-11-19T10:17:38.555Z,42.3
2017-11-19T10:18:39.871Z,42.3
2017-11-19T10:19:41.774Z,42.4
2017-11-19T10:20:43.112Z,42.3
2017-11-19T10:21:44.733Z,42.3
2017-11-19T10:22:46.355Z,42.4
2017-11-19T10:23:48.249Z,42.4
2017-11-19T10:24:49.571Z,42.4
2017-11-19T10:25:51.193Z,42.3
2017-11-19T10:26:52.517Z,42.3
2017-11-19T10:27:54.134Z,42.3
2017-11-19T10:28:55.733Z,42.3
2017-11-19T10:29:57.355Z,42.3
2017-11-19T10:30:59.252Z,42.2
2017-11-19T10:32:00.850Z,42.3
2017-11-19T10:33:02.746Z,42.1
2017-11-19T10:34:04.379Z,42.3
2017-11-19T10:35:06.001Z,42.4
2017-11-19T10:36:07.619Z,42.3
2017-11-19T10:37:09.516Z,42.4
2017-11-19T10:38:11.409Z,42.2
2017-11-19T10:39:13.028Z,42.2
2017-11-19T10:40:14.650Z,42.6
2017-11-19T10:41:16.269Z,42.6
2017-11-19T10:42:17.893Z,42.2
2017-11-19T10:43:19.790Z,42.2
2017-11-19T10:44:21.411Z,42.6
2017-11-19T10:45:23.016Z,42.2
2017-11-19T10:46:24.353Z,42.6
2017-11-19T10:47:26.252Z,42.5
2017-11-19T10:48:27.870Z,42.3
2017-11-19T10:49:29.763Z,42.7
2017-11-19T10:50:31.663Z,42.8
2017-11-19T10:51:33.555Z,42.3
2017-11-19T10:52:35.190Z,42.2
2017-11-19T10:53:36.801Z,42.1
2017-11-19T10:54:38.697Z,42.2
2017-11-19T10:55:40.026Z,42.6
2017-11-19T10:56:41.640Z,42.4
2017-11-19T10:57:43.536Z,42.2
2017-11-19T10:58:44.913Z,42.2
2017-11-19T10:59:46.815Z,42.4
2017-11-19T11:00:48.434Z,42.7
2017-11-19T11:01:50.048Z,42.8
2017-11-19T11:02:51.671Z,42.5
2017-11-19T11:03:53.566Z,42.7
2017-11-19T11:04:54.906Z,42.6
2017-11-19T11:05:56.530Z,42.5
2017-11-19T11:06:58.149Z,42.4
2017-11-19T11:07:59.748Z,42.8
2017-11-19T11:09:01.389Z,42.4
2017-11-19T11:10:03.286Z,42.7
2017-11-19T11:11:04.914Z,42.7
2017-11-19T11:12:06.256Z,42.7
2017-11-19T11:13:07.572Z,42.7
2017-11-19T11:14:08.917Z,42.8
2017-11-19T11:15:10.816Z,42.7
2017-11-19T11:16:12.434Z,42.7
2017-11-19T11:17:14.050Z,42.3
2017-11-19T11:18:15.670Z,42.4
2017-11-19T11:19:17.038Z,42.7
2017-11-19T11:20:18.085Z,42.7
2017-11-19T11:21:19.706Z,42.5
2017-11-19T11:22:21.615Z,42.5
2017-11-19T11:23:22.955Z,42.6
2017-11-19T11:24:24.576Z,42.9
2017-11-19T11:25:26.475Z,42.3
2017-11-19T11:26:28.089Z,42.4
2017-11-19T11:27:29.706Z,42.7
2017-11-19T11:28:31.601Z,42.8
2017-11-19T11:29:33.503Z,42.3
2017-11-19T11:30:35.395Z,42.7
2017-11-19T11:31:37.016Z,42.2
2017-11-19T11:32:38.913Z,42
2017-11-19T11:33:40.256Z,42.5
2017-11-19T11:34:42.150Z,42.3
2017-11-19T11:35:43.773Z,42.6
2017-11-19T11:36:45.403Z,42.5
2017-11-19T11:37:47.290Z,42.3
2017-11-19T11:38:49.187Z,42.4
2017-11-19T11:39:50.854Z,42.5
2017-11-19T11:40:52.477Z,42.8
2017-11-19T11:41:54.101Z,42.8
2017-11-19T11:42:55.727Z,42.6
2017-11-19T11:43:57.348Z,42.6
2017-11-19T11:44:58.967Z,42.8
2017-11-19T11:46:00.584Z,42.7
2017-11-19T11:47:02.212Z,42.4
2017-11-19T11:48:04.110Z,42.4
2017-11-19T11:49:05.151Z,42.6
2017-11-19T11:50:07.054Z,42.6
2017-11-19T11:51:08.655Z,42.2
2017-11-19T11:52:10.279Z,42.8
2017-11-19T11:53:12.170Z,42.4
2017-11-19T11:54:13.795Z,42.5
2017-11-19T11:55:15.417Z,42.5
2017-11-19T11:56:16.764Z,42.8
2017-11-19T11:57:18.387Z,42.7
2017-11-19T11:58:20.004Z,42.7
2017-11-19T11:59:21.622Z,42.5
2017-11-19T12:00:23.241Z,42.7
2017-11-19T12:01:24.865Z,42.2
2017-11-19T12:02:26.483Z,42.8
2017-11-19T12:03:28.379Z,42.8
2017-11-19T12:04:30.274Z,42.7
2017-11-19T12:05:32.166Z,42.8
2017-11-19T12:06:34.063Z,42.8
2017-11-19T12:07:35.680Z,42.7
2017-11-19T12:08:37.301Z,42.7
2017-11-19T12:09:39.197Z,42.7
2017-11-19T12:10:41.197Z,42.6
2017-11-19T12:11:43.092Z,42.6
2017-11-19T12:12:44.716Z,42.6
2017-11-19T12:13:46.345Z,42.5
2017-11-19T12:14:47.414Z,42.4
2017-11-19T12:15:49.132Z,42.8
2017-11-19T12:16:51.031Z,42.8
2017-11-19T12:17:52.929Z,42.7
2017-11-19T12:18:54.549Z,42.6
2017-11-19T12:19:55.870Z,42.6
2017-11-19T12:20:57.491Z,42.6
2017-11-19T12:21:59.114Z,42.5
2017-11-19T12:23:00.710Z,42.6
2017-11-19T12:24:02.639Z,42.3
2017-11-19T12:25:03.961Z,42.5
2017-11-19T12:26:05.582Z,42.8
2017-11-19T12:27:06.924Z,42.7
2017-11-19T12:28:08.244Z,42.8
2017-11-19T12:29:09.724Z,42.7
2017-11-19T12:30:11.326Z,42.8
2017-11-19T12:31:12.941Z,42.6
2017-11-19T12:32:14.570Z,42.9
2017-11-19T12:33:16.190Z,42.6
2017-11-19T12:34:17.805Z,42.7
2017-11-19T12:35:19.708Z,42.7
2017-11-19T12:36:21.352Z,42.7
2017-11-19T12:37:23.246Z,42.9
2017-11-19T12:38:24.899Z,42.6
2017-11-19T12:39:26.792Z,43
2017-11-19T12:40:28.412Z,42.8
2017-11-19T12:41:30.035Z,42.2
2017-11-19T12:42:31.637Z,42.8
2017-11-19T12:43:33.538Z,42.6
2017-11-19T12:44:35.156Z,42.6
2017-11-19T12:45:37.072Z,42.6
2017-11-19T12:46:38.689Z,42.6
2017-11-19T12:47:40.293Z,42.7
2017-11-19T12:48:41.917Z,42.6
2017-11-19T12:49:43.811Z,42.8
2017-11-19T12:50:45.725Z,42.8
2017-11-19T12:51:47.628Z,42.8
2017-11-19T12:52:49.533Z,42.5
2017-11-19T12:53:51.157Z,42.7
2017-11-19T12:54:52.758Z,42.7
2017-11-19T12:55:54.656Z,42.8
2017-11-19T12:56:56.278Z,42.6
2017-11-19T12:57:58.179Z,42.7
2017-11-19T12:58:59.510Z,42.6
2017-11-19T13:00:01.406Z,42.8
2017-11-19T13:01:02.745Z,42.6
2017-11-19T13:02:04.368Z,42.8
2017-11-19T13:03:05.427Z,42.8
2017-11-19T13:04:07.053Z,42.8
2017-11-19T13:05:08.666Z,42.9
2017-11-19T13:06:09.986Z,42.8
2017-11-19T13:07:11.888Z,42.6
2017-11-19T13:08:13.786Z,42.6
2017-11-19T13:09:15.418Z,42.8
2017-11-19T13:10:17.033Z,42.6
2017-11-19T13:11:18.661Z,42.8
2017-11-19T13:12:20.554Z,42.7
2017-11-19T13:13:22.450Z,42.8
2017-11-19T13:14:24.379Z,42.6
2017-11-19T13:15:25.692Z,42.6
2017-11-19T13:18:01.333Z,42.5
2017-11-19T13:19:03.233Z,42.7
2017-11-19T13:20:05.129Z,42.7
2017-11-19T13:21:06.738Z,42.6
2017-11-19T13:22:08.631Z,42.7
2017-11-19T13:23:10.527Z,42.6
2017-11-19T13:24:12.137Z,42.6
2017-11-19T13:25:13.460Z,43
2017-11-19T13:26:15.357Z,42.7
2017-11-19T13:27:16.967Z,42.5
2017-11-19T13:28:18.868Z,42.6
2017-11-19T13:29:20.776Z,42.7
2017-11-19T13:30:22.397Z,42.7
2017-11-19T13:31:24.011Z,42.7
2017-11-19T13:32:25.611Z,42.6
2017-11-19T13:33:27.220Z,42.6
2017-11-19T13:34:29.120Z,42.6
2017-11-19T13:35:30.160Z,42.6
2017-11-19T13:36:31.778Z,42.7
2017-11-19T13:37:32.871Z,42.7
2017-11-19T13:38:34.493Z,42.8
2017-11-19T13:39:36.112Z,42.8
2017-11-19T13:40:37.433Z,42.7
2017-11-19T13:41:39.333Z,42.8
2017-11-19T13:42:40.657Z,42.6
2017-11-19T13:43:42.554Z,42.6
2017-11-19T13:44:44.186Z,42.6
2017-11-19T13:45:46.083Z,42.7